sensor_id;sensor_type;location;lat;lon;timestamp;pressure;altitude;pressure_sealevel;temperature;humidity
26489;BME280;14169;43.684;10.484;2023-03-13T00:01:42;101767.56;;;11.33;100.00
26489;BME280;14169;43.684;10.484;2023-03-13T00:04:09;101774.59;;;11.29;100.00
26489;BME280;14169;43.684;10.484;2023-03-13T00:06:36;101783.34;;;11.25;100.00
26489;BME280;14169;43.684;10.484;2023-03-13T00:09:03;101791.22;;;11.22;100.00
26489;BME280;14169;43.684;10.484;2023-03-13T00:11:29;101788.78;;;11.13;100.00
26489;BME280;14169;43.684;10.484;2023-03-13T00:13:59;101788.97;;;11.03;100.00
26489;BME280;14169;43.684;10.484;2023-03-13T00:16:26;101789.13;;;10.93;100.00
26489;BME280;14169;43.684;10.484;2023-03-13T00:18:53;101794.41;;;10.89;100.00
26489;BME280;14169;43.684;10.484;2023-03-13T00:21:21;101797.06;;;10.84;100.00
26489;BME280;14169;43.684;10.484;2023-03-13T00:23:47;101795.34;;;10.85;100.00
26489;BME280;14169;43.684;10.484;2023-03-13T00:26:19;101812.75;;;10.83;100.00
26489;BME280;14169;43.684;10.484;2023-03-13T00:28:45;101812.78;;;10.81;100.00
26489;BME280;14169;43.684;10.484;2023-03-13T00:31:16;101816.22;;;10.82;100.00
26489;BME280;14169;43.684;10.484;2023-03-13T00:33:44;101818.91;;;10.79;100.00
26489;BME280;14169;43.684;10.484;2023-03-13T00:36:15;101815.47;;;10.74;100.00
26489;BME280;14169;43.684;10.484;2023-03-13T00:38:41;101814.66;;;10.72;100.00
26489;BME280;14169;43.684;10.484;2023-03-13T00:41:11;101816.41;;;10.71;100.00
26489;BME280;14169;43.684;10.484;2023-03-13T00:43:37;101811.97;;;10.76;100.00
26489;BME280;14169;43.684;10.484;2023-03-13T00:46:03;101812.78;;;10.81;100.00
26489;BME280;14169;43.684;10.484;2023-03-13T00:48:29;101815.31;;;10.84;100.00
26489;BME280;14169;43.684;10.484;2023-03-13T00:50:55;101817.09;;;10.82;100.00
26489;BME280;14169;43.684;10.484;2023-03-13T00:53:21;101819.03;;;10.70;100.00
26489;BME280;14169;43.684;10.484;2023-03-13T00:55:53;101815.78;;;10.53;100.00
26489;BME280;14169;43.684;10.484;2023-03-13T00:58:21;101825.50;;;10.42;100.00
26489;BME280;14169;43.684;10.484;2023-03-13T01:00:47;101829.28;;;10.20;100.00
26489;BME280;14169;43.684;10.484;2023-03-13T01:03:12;101832.97;;;10.00;100.00
26489;BME280;14169;43.684;10.484;2023-03-13T01:05:38;101835.00;;;9.76;100.00
26489;BME280;14169;43.684;10.484;2023-03-13T01:08:04;101840.34;;;9.62;100.00
26489;BME280;14169;43.684;10.484;2023-03-13T01:10:29;101839.59;;;9.51;100.00
26489;BME280;14169;43.684;10.484;2023-03-13T01:12:55;101839.66;;;9.45;100.00
26489;BME280;14169;43.684;10.484;2023-03-13T01:15:20;101839.69;;;9.44;100.00
26489;BME280;14169;43.684;10.484;2023-03-13T01:17:45;101831.03;;;9.39;100.00
26489;BME280;14169;43.684;10.484;2023-03-13T01:20:11;101827.50;;;9.44;100.00
26489;BME280;14169;43.684;10.484;2023-03-13T01:22:37;101817.94;;;9.49;100.00
26489;BME280;14169;43.684;10.484;2023-03-13T01:25:03;101823.16;;;9.49;100.00
26489;BME280;14169;43.684;10.484;2023-03-13T01:27:29;101824.84;;;9.53;100.00
26489;BME280;14169;43.684;10.484;2023-03-13T01:29:55;101821.28;;;9.60;100.00
26489;BME280;14169;43.684;10.484;2023-03-13T01:32:20;101829.88;;;9.70;100.00
26489;BME280;14169;43.684;10.484;2023-03-13T01:34:46;101816.81;;;9.73;100.00
26489;BME280;14169;43.684;10.484;2023-03-13T01:37:11;101807.22;;;9.78;100.00
26489;BME280;14169;43.684;10.484;2023-03-13T01:39:37;101808.13;;;9.75;100.00
26489;BME280;14169;43.684;10.484;2023-03-13T01:42:03;101804.69;;;9.73;100.00
26489;BME280;14169;43.684;10.484;2023-03-13T01:44:49;101808.13;;;9.75;100.00
26489;BME280;14169;43.684;10.484;2023-03-13T01:47:14;101809.81;;;9.79;100.00
26489;BME280;14169;43.684;10.484;2023-03-13T01:49:42;101809.81;;;9.79;100.00
26489;BME280;14169;43.684;10.484;2023-03-13T01:52:37;101801.19;;;9.76;100.00
26489;BME280;14169;43.684;10.484;2023-03-13T01:55:13;101805.44;;;9.81;100.00
26489;BME280;14169;43.684;10.484;2023-03-13T01:57:47;101804.53;;;9.85;100.00
26489;BME280;14169;43.684;10.484;2023-03-13T02:00:24;101809.72;;;9.87;100.00
26489;BME280;14169;43.684;10.484;2023-03-13T02:02:53;101808.00;;;9.84;100.00
26489;BME280;14169;43.684;10.484;2023-03-13T02:05:21;101809.75;;;9.82;100.00
26489;BME280;14169;43.684;10.484;2023-03-13T02:10:24;101806.28;;;9.85;100.00
26489;BME280;14169;43.684;10.484;2023-03-13T02:12:51;101802.84;;;9.81;100.00
26489;BME280;14169;43.684;10.484;2023-03-13T02:15:36;101799.47;;;9.73;100.00
26489;BME280;14169;43.684;10.484;2023-03-13T02:18:01;101804.69;;;9.70;100.00
26489;BME280;14169;43.684;10.484;2023-03-13T02:20:27;101797.81;;;9.65;100.00
26489;BME280;14169;43.684;10.484;2023-03-13T02:25:53;101810.03;;;9.60;100.00
26489;BME280;14169;43.684;10.484;2023-03-13T02:28:30;101803.91;;;9.62;100.00
26489;BME280;14169;43.684;10.484;2023-03-13T02:30:59;101802.16;;;9.64;100.00
26489;BME280;14169;43.684;10.484;2023-03-13T02:33:27;101799.56;;;9.66;100.00
26489;BME280;14169;43.684;10.484;2023-03-13T02:35:53;101798.69;;;9.65;100.00
26489;BME280;14169;43.684;10.484;2023-03-13T02:38:23;101801.31;;;9.62;100.00
26489;BME280;14169;43.684;10.484;2023-03-13T02:40:51;101800.47;;;9.60;100.00
26489;BME280;14169;43.684;10.484;2023-03-13T02:43:22;101804.88;;;9.55;100.00
26489;BME280;14169;43.684;10.484;2023-03-13T02:48:49;101794.63;;;9.39;100.00
26489;BME280;14169;43.684;10.484;2023-03-13T02:53:55;101798.25;;;9.24;100.00
26489;BME280;14169;43.684;10.484;2023-03-13T02:56:23;101792.25;;;9.19;100.00
26489;BME280;14169;43.684;10.484;2023-03-13T02:58:49;101796.59;;;9.17;100.00
26489;BME280;14169;43.684;10.484;2023-03-13T03:01:15;101801.84;;;9.11;100.00
26489;BME280;14169;43.684;10.484;2023-03-13T03:03:40;101807.16;;;8.93;100.00
26489;BME280;14169;43.684;10.484;2023-03-13T03:06:06;101802.91;;;8.83;100.00
26489;BME280;14169;43.684;10.484;2023-03-13T03:08:32;101809.88;;;8.76;100.00
26489;BME280;14169;43.684;10.484;2023-03-13T03:10:58;101813.38;;;8.75;100.00
26489;BME280;14169;43.684;10.484;2023-03-13T03:13:23;101812.47;;;8.79;100.00
26489;BME280;14169;43.684;10.484;2023-03-13T03:15:49;101804.66;;;8.84;100.00
26489;BME280;14169;43.684;10.484;2023-03-13T03:18:14;101800.28;;;8.87;100.00
26489;BME280;14169;43.684;10.484;2023-03-13T03:20:40;101798.50;;;8.94;100.00
26489;BME280;14169;43.684;10.484;2023-03-13T03:23:05;101810.59;;;8.98;100.00
26489;BME280;14169;43.684;10.484;2023-03-13T03:25:30;101798.47;;;9.01;100.00
26489;BME280;14169;43.684;10.484;2023-03-13T03:27:56;101786.34;;;8.94;100.00
26489;BME280;14169;43.684;10.484;2023-03-13T03:30:21;101782.06;;;8.92;100.00
26489;BME280;14169;43.684;10.484;2023-03-13T03:32:46;101781.19;;;8.88;100.00
26489;BME280;14169;43.684;10.484;2023-03-13T03:35:12;101780.34;;;8.89;100.00
26489;BME280;14169;43.684;10.484;2023-03-13T03:37:37;101782.91;;;8.91;100.00
26489;BME280;14169;43.684;10.484;2023-03-13T03:40:03;101776.84;;;8.90;100.00
26489;BME280;14169;43.684;10.484;2023-03-13T03:42:32;101786.34;;;8.94;100.00
26489;BME280;14169;43.684;10.484;2023-03-13T03:44:58;101769.00;;;9.01;100.00
26489;BME280;14169;43.684;10.484;2023-03-13T03:47:23;101772.47;;;9.03;100.00
26489;BME280;14169;43.684;10.484;2023-03-13T03:49:49;101763.78;;;9.05;100.00
26489;BME280;14169;43.684;10.484;2023-03-13T03:52:14;101757.72;;;9.03;100.00
26489;BME280;14169;43.684;10.484;2023-03-13T03:54:40;101754.28;;;9.01;100.00
26489;BME280;14169;43.684;10.484;2023-03-13T03:57:05;101743.91;;;8.95;100.00
26489;BME280;14169;43.684;10.484;2023-03-13T03:59:30;101746.50;;;8.97;100.00
26489;BME280;14169;43.684;10.484;2023-03-13T04:01:56;101751.69;;;8.97;100.00
26489;BME280;14169;43.684;10.484;2023-03-13T04:04:21;101750.84;;;8.95;100.00
26489;BME280;14169;43.684;10.484;2023-03-13T04:06:47;101757.81;;;8.91;100.00
26489;BME280;14169;43.684;10.484;2023-03-13T04:09:12;101751.78;;;8.86;100.00
26489;BME280;14169;43.684;10.484;2023-03-13T04:11:38;101750.94;;;8.83;100.00
26489;BME280;14169;43.684;10.484;2023-03-13T04:14:03;101745.72;;;8.84;100.00
26489;BME280;14169;43.684;10.484;2023-03-13T04:16:29;101743.97;;;8.89;100.00
26489;BME280;14169;43.684;10.484;2023-03-13T04:18:54;101750.81;;;8.96;100.00
26489;BME280;14169;43.684;10.484;2023-03-13T04:21:20;101756.00;;;8.99;100.00
26489;BME280;14169;43.684;10.484;2023-03-13T04:23:45;101760.31;;;9.05;100.00
26489;BME280;14169;43.684;10.484;2023-03-13T04:26:10;101769.84;;;9.03;100.00
26489;BME280;14169;43.684;10.484;2023-03-13T04:28:36;101768.13;;;9.00;100.00
26489;BME280;14169;43.684;10.484;2023-03-13T04:31:01;101775.91;;;8.99;100.00
26489;BME280;14169;43.684;10.484;2023-03-13T04:33:27;101782.88;;;9.01;100.00
26489;BME280;14169;43.684;10.484;2023-03-13T04:35:52;101792.38;;;9.05;100.00
26489;BME280;14169;43.684;10.484;2023-03-13T04:38:17;101798.44;;;9.06;100.00
26489;BME280;14169;43.684;10.484;2023-03-13T04:40:43;101809.63;;;9.11;100.00
26489;BME280;14169;43.684;10.484;2023-03-13T04:43:09;101813.97;;;9.13;100.00
26489;BME280;14169;43.684;10.484;2023-03-13T04:45:35;101816.56;;;9.12;100.00
26489;BME280;14169;43.684;10.484;2023-03-13T04:48:00;101808.78;;;9.10;100.00
26489;BME280;14169;43.684;10.484;2023-03-13T04:50:25;101803.59;;;9.12;100.00
26489;BME280;14169;43.684;10.484;2023-03-13T04:52:51;101804.44;;;9.11;100.00
26489;BME280;14169;43.684;10.484;2023-03-13T04:55:16;101811.47;;;8.97;100.00
26489;BME280;14169;43.684;10.484;2023-03-13T04:57:41;101812.44;;;8.82;100.00
26489;BME280;14169;43.684;10.484;2023-03-13T05:00:08;101814.28;;;8.65;100.00
26489;BME280;14169;43.684;10.484;2023-03-13T05:02:34;101816.94;;;8.59;100.00
26489;BME280;14169;43.684;10.484;2023-03-13T05:04:59;101815.19;;;8.58;100.00
26489;BME280;14169;43.684;10.484;2023-03-13T05:07:25;101822.13;;;8.61;100.00
26489;BME280;14169;43.684;10.484;2023-03-13T05:09:50;101829.03;;;8.63;100.00
26489;BME280;14169;43.684;10.484;2023-03-13T05:12:16;101831.66;;;8.62;100.00
26489;BME280;14169;43.684;10.484;2023-03-13T05:15:04;101830.75;;;8.66;100.00
26489;BME280;14169;43.684;10.484;2023-03-13T05:17:30;101835.03;;;8.71;100.00
26489;BME280;14169;43.684;10.484;2023-03-13T05:19:56;101835.03;;;8.68;100.00
26489;BME280;14169;43.684;10.484;2023-03-13T05:22:21;101833.31;;;8.69;100.00
26489;BME280;14169;43.684;10.484;2023-03-13T05:24:47;101838.44;;;8.76;100.00
26489;BME280;14169;43.684;10.484;2023-03-13T05:27:38;101827.19;;;8.79;100.00
26489;BME280;14169;43.684;10.484;2023-03-13T05:30:07;101819.38;;;8.80;100.00
26489;BME280;14169;43.684;10.484;2023-03-13T05:32:32;101828.88;;;8.83;100.00
26489;BME280;14169;43.684;10.484;2023-03-13T05:34:58;101827.13;;;8.89;100.00
26489;BME280;14169;43.684;10.484;2023-03-13T05:37:23;101825.38;;;8.88;100.00
26489;BME280;14169;43.684;10.484;2023-03-13T05:39:48;101834.94;;;8.88;100.00
26489;BME280;14169;43.684;10.484;2023-03-13T05:42:16;101836.63;;;8.93;100.00
26489;BME280;14169;43.684;10.484;2023-03-13T05:44:41;101836.59;;;8.95;100.00
26489;BME280;14169;43.684;10.484;2023-03-13T05:47:07;101838.34;;;8.96;100.00
26489;BME280;14169;43.684;10.484;2023-03-13T05:49:32;101829.75;;;8.85;100.00
26489;BME280;14169;43.684;10.484;2023-03-13T05:51:59;101828.81;;;8.90;100.00
26489;BME280;14169;43.684;10.484;2023-03-13T05:54:24;101839.19;;;8.98;100.00
26489;BME280;14169;43.684;10.484;2023-03-13T05:56:50;101833.97;;;9.01;100.00
26489;BME280;14169;43.684;10.484;2023-03-13T05:59:16;101838.31;;;9.03;100.00
26489;BME280;14169;43.684;10.484;2023-03-13T06:01:41;101840.03;;;9.03;100.00
26489;BME280;14169;43.684;10.484;2023-03-13T06:04:07;101846.09;;;9.03;100.00
26489;BME280;14169;43.684;10.484;2023-03-13T06:06:32;101850.38;;;9.09;100.00
26489;BME280;14169;43.684;10.484;2023-03-13T06:08:57;101845.19;;;9.09;100.00
26489;BME280;14169;43.684;10.484;2023-03-13T06:11:23;101840.88;;;9.08;100.00
26489;BME280;14169;43.684;10.484;2023-03-13T06:13:50;101843.44;;;9.11;100.00
26489;BME280;14169;43.684;10.484;2023-03-13T06:16:16;101845.16;;;9.12;100.00
26489;BME280;14169;43.684;10.484;2023-03-13T06:18:41;101845.13;;;9.18;100.00
26489;BME280;14169;43.684;10.484;2023-03-13T06:21:07;101847.63;;;9.24;100.00
26489;BME280;14169;43.684;10.484;2023-03-13T06:23:32;101839.78;;;9.33;100.00
26489;BME280;14169;43.684;10.484;2023-03-13T06:25:59;101851.84;;;9.42;100.00
26489;BME280;14169;43.684;10.484;2023-03-13T06:28:24;101853.50;;;9.47;100.00
26489;BME280;14169;43.684;10.484;2023-03-13T06:30:50;101862.16;;;9.49;100.00
26489;BME280;14169;43.684;10.484;2023-03-13T06:33:15;101857.84;;;9.47;100.00
26489;BME280;14169;43.684;10.484;2023-03-13T06:35:41;101851.78;;;9.48;100.00
26489;BME280;14169;43.684;10.484;2023-03-13T06:38:08;101845.63;;;9.58;100.00
26489;BME280;14169;43.684;10.484;2023-03-13T06:40:34;101844.66;;;9.68;100.00
26489;BME280;14169;43.684;10.484;2023-03-13T06:42:59;101851.44;;;9.79;100.00
26489;BME280;14169;43.684;10.484;2023-03-13T06:45:25;101855.66;;;9.89;100.00
26489;BME280;14169;43.684;10.484;2023-03-13T06:47:50;101846.03;;;9.96;100.00
26489;BME280;14169;43.684;10.484;2023-03-13T06:50:16;101854.63;;;10.02;100.00
26489;BME280;14169;43.684;10.484;2023-03-13T06:52:42;101857.16;;;10.08;100.00
26489;BME280;14169;43.684;10.484;2023-03-13T06:55:08;101860.56;;;10.15;100.00
26489;BME280;14169;43.684;10.484;2023-03-13T06:57:34;101857.91;;;10.20;100.00
26489;BME280;14169;43.684;10.484;2023-03-13T06:59:59;101865.66;;;10.24;100.00
26489;BME280;14169;43.684;10.484;2023-03-13T07:02:24;101862.06;;;10.34;100.00
26489;BME280;14169;43.684;10.484;2023-03-13T07:04:50;101864.53;;;10.45;100.00
26489;BME280;14169;43.684;10.484;2023-03-13T07:07:15;101870.59;;;10.45;100.00
26489;BME280;14169;43.684;10.484;2023-03-13T07:09:40;101868.75;;;10.53;100.00
26489;BME280;14169;43.684;10.484;2023-03-13T07:12:06;101870.44;;;10.59;100.00
26489;BME280;14169;43.684;10.484;2023-03-13T07:14:32;101872.00;;;10.70;100.00
26489;BME280;14169;43.684;10.484;2023-03-13T07:16:58;101870.22;;;10.75;100.00
26489;BME280;14169;43.684;10.484;2023-03-13T07:19:24;101884.94;;;10.76;100.00
26489;BME280;14169;43.684;10.484;2023-03-13T07:21:52;101894.47;;;10.79;100.00
26489;BME280;14169;43.684;10.484;2023-03-13T07:24:18;101898.78;;;10.83;100.00
26489;BME280;14169;43.684;10.484;2023-03-13T07:26:43;101901.22;;;10.92;100.00
26489;BME280;14169;43.684;10.484;2023-03-13T07:29:09;101895.81;;;11.07;100.00
26489;BME280;14169;43.684;10.484;2023-03-13T07:31:34;101904.22;;;11.24;100.00
26489;BME280;14169;43.684;10.484;2023-03-13T07:34:00;101899.69;;;11.34;100.00
26489;BME280;14169;43.684;10.484;2023-03-13T07:36:25;101904.72;;;11.47;100.00
26489;BME280;14169;43.684;10.484;2023-03-13T07:38:51;101908.81;;;11.60;100.00
26489;BME280;14169;43.684;10.484;2023-03-13T07:41:17;101897.19;;;11.78;100.00
26489;BME280;14169;43.684;10.484;2023-03-13T07:43:43;101905.50;;;12.00;100.00
26489;BME280;14169;43.684;10.484;2023-03-13T07:46:29;101906.09;;;12.14;100.00
26489;BME280;14169;43.684;10.484;2023-03-13T07:48:54;101903.03;;;12.36;100.00
26489;BME280;14169;43.684;10.484;2023-03-13T07:51:22;101895.66;;;12.56;100.00
26489;BME280;14169;43.684;10.484;2023-03-13T07:53:48;101893.50;;;12.75;100.00
26489;BME280;14169;43.684;10.484;2023-03-13T07:56:17;101897.31;;;12.99;100.00
26489;BME280;14169;43.684;10.484;2023-03-13T07:58:43;101897.78;;;13.14;100.00
26489;BME280;14169;43.684;10.484;2023-03-13T08:01:17;101899.91;;;13.37;100.00
26489;BME280;14169;43.684;10.484;2023-03-13T08:03:44;101901.25;;;13.52;100.00
26489;BME280;14169;43.684;10.484;2023-03-13T08:06:12;101906.13;;;13.67;100.00
26489;BME280;14169;43.684;10.484;2023-03-13T08:08:38;101919.44;;;13.90;100.00
26489;BME280;14169;43.684;10.484;2023-03-13T08:11:12;101910.38;;;14.03;100.00
26489;BME280;14169;43.684;10.484;2023-03-13T08:13:39;101925.59;;;14.21;100.00
26489;BME280;14169;43.684;10.484;2023-03-13T08:18:42;101936.00;;;14.55;100.00
26489;BME280;14169;43.684;10.484;2023-03-13T08:21:11;101945.72;;;14.80;100.00
26489;BME280;14169;43.684;10.484;2023-03-13T08:23:37;101941.91;;;14.90;100.00
26489;BME280;14169;43.684;10.484;2023-03-13T08:26:10;101941.44;;;15.05;100.00
26489;BME280;14169;43.684;10.484;2023-03-13T08:28:37;101942.78;;;15.18;100.00
26489;BME280;14169;43.684;10.484;2023-03-13T08:31:11;101944.91;;;15.34;100.00
26489;BME280;14169;43.684;10.484;2023-03-13T08:33:38;101951.28;;;15.54;100.00
26489;BME280;14169;43.684;10.484;2023-03-13T08:36:17;101961.13;;;15.74;100.00
26489;BME280;14169;43.684;10.484;2023-03-13T08:38:44;101963.22;;;15.89;100.00
26489;BME280;14169;43.684;10.484;2023-03-13T08:41:10;101952.34;;;15.99;100.00
26489;BME280;14169;43.684;10.484;2023-03-13T08:43:36;101957.59;;;16.24;100.00
26489;BME280;14169;43.684;10.484;2023-03-13T08:46:01;101966.00;;;16.58;100.00
26489;BME280;14169;43.684;10.484;2023-03-13T08:48:27;101963.25;;;16.84;100.00
26489;BME280;14169;43.684;10.484;2023-03-13T08:51:11;101963.28;;;16.83;100.00
26489;BME280;14169;43.684;10.484;2023-03-13T08:53:37;101959.97;;;17.01;100.00
26489;BME280;14169;43.684;10.484;2023-03-13T08:56:04;101949.09;;;17.10;100.00
26489;BME280;14169;43.684;10.484;2023-03-13T08:58:30;101942.47;;;17.22;100.00
26489;BME280;14169;43.684;10.484;2023-03-13T09:01:22;101921.25;;;17.25;100.00
26489;BME280;14169;43.684;10.484;2023-03-13T09:03:49;101911.50;;;17.27;100.00
26489;BME280;14169;43.684;10.484;2023-03-13T09:06:14;101912.50;;;17.24;100.00
26489;BME280;14169;43.684;10.484;2023-03-13T09:08:40;101911.28;;;17.33;100.00
26489;BME280;14169;43.684;10.484;2023-03-13T09:11:08;101921.84;;;17.33;100.00
26489;BME280;14169;43.684;10.484;2023-03-13T09:13:37;101927.41;;;17.47;100.00
26489;BME280;14169;43.684;10.484;2023-03-13T09:16:07;101918.50;;;17.49;100.00
26489;BME280;14169;43.684;10.484;2023-03-13T09:18:33;101921.03;;;17.52;100.00
26489;BME280;14169;43.684;10.484;2023-03-13T09:20:59;101921.81;;;17.75;100.00
26489;BME280;14169;43.684;10.484;2023-03-13T09:23:25;101929.06;;;18.10;100.00
26489;BME280;14169;43.684;10.484;2023-03-13T09:25:52;101926.41;;;18.50;100.00
26489;BME280;14169;43.684;10.484;2023-03-13T09:28:18;101925.69;;;18.84;100.00
26489;BME280;14169;43.684;10.484;2023-03-13T09:30:43;101933.34;;;19.07;100.00
26489;BME280;14169;43.684;10.484;2023-03-13T09:33:08;101936.44;;;19.16;100.00
26489;BME280;14169;43.684;10.484;2023-03-13T09:35:34;101949.19;;;19.44;100.00
26489;BME280;14169;43.684;10.484;2023-03-13T09:37:59;101950.66;;;19.67;100.00
26489;BME280;14169;43.684;10.484;2023-03-13T09:40:25;101947.31;;;19.80;100.00
26489;BME280;14169;43.684;10.484;2023-03-13T09:42:56;101948.44;;;19.93;100.00
26489;BME280;14169;43.684;10.484;2023-03-13T09:45:29;101944.34;;;20.20;100.00
26489;BME280;14169;43.684;10.484;2023-03-13T09:48:04;101940.28;;;20.31;100.00
26489;BME280;14169;43.684;10.484;2023-03-13T09:50:34;101939.19;;;20.35;100.00
26489;BME280;14169;43.684;10.484;2023-03-13T09:53:06;101936.09;;;20.27;100.00
26489;BME280;14169;43.684;10.484;2023-03-13T09:55:38;101943.41;;;20.54;100.00
26489;BME280;14169;43.684;10.484;2023-03-13T09:58:18;101936.22;;;20.73;100.00
26489;BME280;14169;43.684;10.484;2023-03-13T10:00:50;101935.44;;;21.02;100.00
26489;BME280;14169;43.684;10.484;2023-03-13T10:03:20;101931.16;;;21.31;100.00
26489;BME280;14169;43.684;10.484;2023-03-13T10:05:51;101928.22;;;21.51;100.00
26489;BME280;14169;43.684;10.484;2023-03-13T10:08:25;101922.16;;;21.49;100.00
26489;BME280;14169;43.684;10.484;2023-03-13T10:13:49;101923.81;;;21.96;100.00
26489;BME280;14169;43.684;10.484;2023-03-13T10:19:17;101923.03;;;21.64;100.00
26489;BME280;14169;43.684;10.484;2023-03-13T10:21:46;101924.13;;;21.30;100.00
26489;BME280;14169;43.684;10.484;2023-03-13T10:24:31;101916.22;;;20.99;100.00
26489;BME280;14169;43.684;10.484;2023-03-13T10:26:57;101912.28;;;21.06;100.00
26489;BME280;14169;43.684;10.484;2023-03-13T10:29:26;101903.28;;;21.24;100.00
26489;BME280;14169;43.684;10.484;2023-03-13T10:32:00;101901.16;;;21.60;100.00
26489;BME280;14169;43.684;10.484;2023-03-13T10:34:28;101900.31;;;22.04;100.00
26489;BME280;14169;43.684;10.484;2023-03-13T10:36:59;101901.00;;;22.49;100.00
26489;BME280;14169;43.684;10.484;2023-03-13T10:39:27;101899.16;;;22.64;99.61
26489;BME280;14169;43.684;10.484;2023-03-13T10:42:07;101892.28;;;22.33;99.37
26489;BME280;14169;43.684;10.484;2023-03-13T10:44:34;101884.03;;;22.79;100.00
26489;BME280;14169;43.684;10.484;2023-03-13T10:47:01;101888.94;;;23.25;95.04
26489;BME280;14169;43.684;10.484;2023-03-13T10:49:27;101890.75;;;23.25;92.59
26489;BME280;14169;43.684;10.484;2023-03-13T10:52:01;101883.91;;;22.53;94.60
26489;BME280;14169;43.684;10.484;2023-03-13T10:54:29;101887.22;;;22.43;96.43
26489;BME280;14169;43.684;10.484;2023-03-13T10:59:45;101885.06;;;22.35;98.57
26489;BME280;14169;43.684;10.484;2023-03-13T11:04:45;101884.84;;;21.52;100.00
26489;BME280;14169;43.684;10.484;2023-03-13T11:07:20;101884.91;;;21.21;100.00
26489;BME280;14169;43.684;10.484;2023-03-13T11:12:49;101882.31;;;21.65;100.00
26489;BME280;14169;43.684;10.484;2023-03-13T11:15:21;101887.09;;;21.88;100.00
26489;BME280;14169;43.684;10.484;2023-03-13T11:20:29;101880.72;;;21.47;100.00
26489;BME280;14169;43.684;10.484;2023-03-13T11:28:48;101863.44;;;22.13;100.00
26489;BME280;14169;43.684;10.484;2023-03-13T11:31:22;101855.16;;;22.46;100.00
26489;BME280;14169;43.684;10.484;2023-03-13T11:34:05;101849.59;;;23.04;100.00
26489;BME280;14169;43.684;10.484;2023-03-13T11:41:58;101849.22;;;24.37;98.79
26489;BME280;14169;43.684;10.484;2023-03-13T12:00:46;101796.84;;;23.62;95.14
26489;BME280;14169;43.684;10.484;2023-03-13T12:03:20;101800.91;;;23.93;91.37
26489;BME280;14169;43.684;10.484;2023-03-13T12:05:54;101801.44;;;24.47;86.65
26489;BME280;14169;43.684;10.484;2023-03-13T12:08:26;101788.69;;;24.63;88.83
26489;BME280;14169;43.684;10.484;2023-03-13T12:13:43;101773.53;;;24.40;87.91
26489;BME280;14169;43.684;10.484;2023-03-13T12:16:14;101786.41;;;23.97;93.63
26489;BME280;14169;43.684;10.484;2023-03-13T12:18:43;101788.47;;;23.81;96.20
26489;BME280;14169;43.684;10.484;2023-03-13T12:26:15;101795.56;;;23.42;98.93
26489;BME280;14169;43.684;10.484;2023-03-13T12:33:56;101796.00;;;22.16;100.00
26489;BME280;14169;43.684;10.484;2023-03-13T12:36:39;101786.47;;;21.99;100.00
26489;BME280;14169;43.684;10.484;2023-03-13T12:44:33;101765.22;;;22.27;100.00
26489;BME280;14169;43.684;10.484;2023-03-13T13:00:16;101749.31;;;24.90;93.19
26489;BME280;14169;43.684;10.484;2023-03-13T13:02:44;101746.50;;;24.80;92.39
26489;BME280;14169;43.684;10.484;2023-03-13T13:05:18;101732.31;;;25.14;93.09
26489;BME280;14169;43.684;10.484;2023-03-13T13:07:52;101749.47;;;24.99;92.78
26489;BME280;14169;43.684;10.484;2023-03-13T13:10:21;101737.91;;;24.88;90.05
26489;BME280;14169;43.684;10.484;2023-03-13T13:15:47;101732.28;;;25.71;86.17
26489;BME280;14169;43.684;10.484;2023-03-13T13:18:26;101721.22;;;25.43;87.67
26489;BME280;14169;43.684;10.484;2023-03-13T13:28:55;101707.75;;;24.64;91.10
26489;BME280;14169;43.684;10.484;2023-03-13T13:37:01;101686.53;;;25.76;83.34
26489;BME280;14169;43.684;10.484;2023-03-13T13:45:20;101678.75;;;25.29;75.26
26489;BME280;14169;43.684;10.484;2023-03-13T13:47:48;101671.00;;;25.37;77.00
26489;BME280;14169;43.684;10.484;2023-03-13T13:50:25;101680.81;;;25.36;79.91
26489;BME280;14169;43.684;10.484;2023-03-13T13:52:51;101697.59;;;24.34;80.66
26489;BME280;14169;43.684;10.484;2023-03-13T13:55:40;101686.50;;;23.30;82.93
26489;BME280;14169;43.684;10.484;2023-03-13T13:58:19;101676.59;;;22.94;88.89
26489;BME280;14169;43.684;10.484;2023-03-13T14:01:00;101671.34;;;23.55;89.84
26489;BME280;14169;43.684;10.484;2023-03-13T14:03:30;101666.53;;;22.73;91.44
26489;BME280;14169;43.684;10.484;2023-03-13T14:06:03;101670.81;;;21.95;94.64
26489;BME280;14169;43.684;10.484;2023-03-13T14:08:36;101680.00;;;21.49;99.83
26489;BME280;14169;43.684;10.484;2023-03-13T14:11:29;101684.75;;;21.00;100.00
26489;BME280;14169;43.684;10.484;2023-03-13T14:14:14;101686.56;;;20.54;100.00
26489;BME280;14169;43.684;10.484;2023-03-13T14:16:43;101688.34;;;20.24;100.00
26489;BME280;14169;43.684;10.484;2023-03-13T14:19:29;101693.09;;;19.86;100.00
26489;BME280;14169;43.684;10.484;2023-03-13T14:22:05;101690.44;;;19.71;100.00
26489;BME280;14169;43.684;10.484;2023-03-13T14:24:34;101691.19;;;19.57;100.00
26489;BME280;14169;43.684;10.484;2023-03-13T14:26:59;101692.53;;;19.49;100.00
26489;BME280;14169;43.684;10.484;2023-03-13T14:29:25;101698.75;;;19.32;100.00
26489;BME280;14169;43.684;10.484;2023-03-13T14:31:58;101690.25;;;19.08;100.00
26489;BME280;14169;43.684;10.484;2023-03-13T14:34:24;101690.44;;;19.05;100.00